Time;durP1;ratioP1;P1;durP2;ratioP2;P2;SDS_P1;SDS_P2;PMS_P1;PMS_P2;Temp;Humidity;BMP_temperature;BMP_pressure;BME280_temperature;BME280_humidity;BME280_pressure;Samples;Min_cycle;Max_cycle;Signal;HPM_P1;HPM_P2
2023/07/26 00:01:35;;;;;;;6.80;4.35;;;12.90;99.90;;;;;;4916811;29;20428;-91
2023/07/26 00:04:01;;;;;;;4.70;3.85;;;12.90;99.90;;;;;;4916823;29;20414;-91
2023/07/26 00:06:29;;;;;;;7.40;4.43;;;12.90;99.90;;;;;;4916346;29;20410;-92
2023/07/26 00:08:55;;;;;;;6.10;4.20;;;12.90;99.90;;;;;;4917996;29;20766;-91
2023/07/26 00:11:21;;;;;;;8.52;3.92;;;12.90;99.90;;;;;;4915610;29;20434;-92
2023/07/26 00:13:46;;;;;;;7.93;4.30;;;12.90;99.90;;;;;;4917024;29;20446;-91
2023/07/26 00:16:12;;;;;;;6.53;3.92;;;12.90;99.90;;;;;;4915891;29;20410;-92
2023/07/26 00:18:39;;;;;;;6.15;4.25;;;12.90;99.90;;;;;;4916777;29;20461;-92
2023/07/26 00:21:06;;;;;;;8.18;4.45;;;12.80;99.90;;;;;;4916411;29;20414;-92
2023/07/26 00:23:32;;;;;;;7.72;5.13;;;12.80;99.90;;;;;;4916399;29;20433;-93
2023/07/26 00:25:57;;;;;;;7.47;4.43;;;12.80;99.90;;;;;;4917030;29;20440;-92
2023/07/26 00:28:23;;;;;;;7.70;5.15;;;12.90;99.90;;;;;;4914196;29;20921;-93
2023/07/26 00:30:49;;;;;;;6.27;4.43;;;12.80;99.90;;;;;;4917258;29;20476;-92
2023/07/26 00:33:15;;;;;;;6.83;5.30;;;12.90;99.90;;;;;;4915512;29;20417;-92
2023/07/26 00:35:42;;;;;;;7.50;5.00;;;12.80;99.90;;;;;;4917097;29;20422;-92
2023/07/26 00:38:08;;;;;;;8.10;5.35;;;12.70;99.90;;;;;;4915440;29;20758;-92
2023/07/26 00:40:35;;;;;;;7.10;5.05;;;12.70;99.90;;;;;;4916529;29;20505;-92
2023/07/26 00:43:01;;;;;;;8.13;5.25;;;12.70;99.90;;;;;;4916485;29;20798;-92
2023/07/26 00:45:29;;;;;;;5.95;4.95;;;12.70;99.90;;;;;;4915535;29;20413;-91
2023/07/26 00:47:55;;;;;;;5.70;4.28;;;12.60;99.90;;;;;;4917089;29;20414;-92
2023/07/26 00:50:22;;;;;;;7.57;5.17;;;12.50;99.90;;;;;;4914802;29;20409;-91
2023/07/26 00:52:48;;;;;;;7.73;5.30;;;12.50;99.90;;;;;;4916855;29;20448;-91
2023/07/26 00:55:15;;;;;;;6.57;4.37;;;12.40;99.90;;;;;;4915834;29;20430;-92
2023/07/26 00:57:42;;;;;;;9.18;5.78;;;12.40;99.90;;;;;;4916369;29;20504;-92
2023/07/26 01:00:09;;;;;;;8.70;6.10;;;12.40;99.90;;;;;;4916471;29;20523;-92
2023/07/26 01:02:35;;;;;;;6.95;5.07;;;12.40;99.90;;;;;;4915777;29;21059;-92
2023/07/26 01:05:01;;;;;;;7.53;5.25;;;12.40;99.90;;;;;;4917326;29;20410;-92
2023/07/26 01:08:13;;;;;;;9.47;6.80;;;12.30;99.90;;;;;;4914937;29;20721;-92
2023/07/26 01:10:46;;;;;;;8.43;5.50;;;12.40;99.90;;;;;;4900682;29;20418;-92
2023/07/26 01:13:24;;;;;;;9.68;6.38;;;12.40;99.90;;;;;;4915880;29;20440;-91
2023/07/26 01:15:51;;;;;;;8.55;5.70;;;12.00;99.90;;;;;;4915471;29;20425;-92
2023/07/26 01:18:17;;;;;;;7.60;5.80;;;12.30;99.90;;;;;;4916741;29;20402;-93
2023/07/26 01:20:43;;;;;;;8.95;6.25;;;12.30;99.90;;;;;;4914798;29;20402;-92
2023/07/26 01:23:09;;;;;;;6.43;4.68;;;12.40;99.90;;;;;;4916129;29;20934;-92
2023/07/26 01:25:35;;;;;;;9.95;6.18;;;12.30;99.90;;;;;;4915311;29;20407;-93
2023/07/26 01:28:02;;;;;;;9.05;5.25;;;12.20;99.90;;;;;;4915757;29;20417;-93
2023/07/26 01:30:29;;;;;;;7.63;5.80;;;12.20;99.90;;;;;;4915898;29;20410;-92
2023/07/26 01:32:59;;;;;;;8.95;6.07;;;12.30;99.90;;;;;;4915735;29;21015;-93
2023/07/26 01:35:25;;;;;;;6.18;5.28;;;12.40;99.90;;;;;;4916783;29;20925;-92
2023/07/26 01:37:53;;;;;;;8.20;6.75;;;12.20;99.90;;;;;;4914505;29;20429;-93
2023/07/26 01:40:21;;;;;;;11.48;7.70;;;12.20;99.90;;;;;;4918943;29;20462;-93
2023/07/26 01:42:48;;;;;;;11.33;7.93;;;12.20;99.90;;;;;;4918826;29;20489;-92
2023/07/26 01:45:13;;;;;;;10.80;7.95;;;12.30;99.90;;;;;;4919558;29;20469;-92
2023/07/26 01:47:39;;;;;;;15.38;9.77;;;12.50;99.90;;;;;;4919560;29;20477;-92
2023/07/26 01:50:06;;;;;;;15.13;9.90;;;12.30;99.90;;;;;;4918841;29;20465;-92
2023/07/26 01:52:32;;;;;;;17.40;10.15;;;12.30;99.90;;;;;;4920250;29;20464;-92
2023/07/26 01:54:58;;;;;;;15.77;10.45;;;12.40;99.90;;;;;;4918037;29;20421;-91
2023/07/26 01:57:25;;;;;;;11.25;8.55;;;12.20;99.90;;;;;;4920112;29;20409;-93
2023/07/26 01:59:54;;;;;;;15.85;10.15;;;12.20;99.90;;;;;;4918476;29;20414;-92
2023/07/26 02:02:20;;;;;;;13.10;9.43;;;12.20;99.90;;;;;;4919230;29;20437;-91
2023/07/26 02:04:46;;;;;;;15.55;9.55;;;12.20;99.90;;;;;;4919023;29;20426;-92
2023/07/26 02:07:12;;;;;;;13.47;9.67;;;12.20;99.90;;;;;;4919311;29;20443;-92
2023/07/26 02:09:38;;;;;;;11.37;7.50;;;12.40;99.90;;;;;;4919577;29;20482;-92
2023/07/26 02:12:04;;;;;;;13.15;7.40;;;12.20;99.90;;;;;;4917835;29;20413;-92
2023/07/26 02:14:30;;;;;;;12.30;7.53;;;12.10;99.90;;;;;;4919394;29;20461;-91
2023/07/26 02:16:56;;;;;;;13.50;9.00;;;12.10;99.90;;;;;;4918032;29;20547;-92
2023/07/26 02:19:22;;;;;;;11.38;7.78;;;12.10;99.90;;;;;;4919286;29;20460;-91
2023/07/26 02:21:47;;;;;;;13.35;8.73;;;12.00;99.90;;;;;;4918027;29;20909;-92
2023/07/26 02:24:13;;;;;;;18.00;10.20;;;11.90;99.90;;;;;;4919279;29;20414;-92
2023/07/26 02:26:39;;;;;;;12.80;9.23;;;11.80;99.90;;;;;;4918801;29;20422;-92
2023/07/26 02:29:05;;;;;;;15.60;10.23;;;11.80;99.90;;;;;;4918184;29;20449;-92
2023/07/26 02:31:31;;;;;;;12.17;8.63;;;11.80;99.90;;;;;;4919819;29;20819;-91
2023/07/26 02:33:57;;;;;;;16.90;9.68;;;11.80;99.90;;;;;;4917741;29;20401;-92
2023/07/26 02:36:24;;;;;;;12.55;8.27;;;11.70;99.90;;;;;;4919222;29;20406;-91
2023/07/26 02:38:49;;;;;;;11.23;8.32;;;11.70;99.90;;;;;;4917561;29;20433;-90
2023/07/26 02:41:15;;;;;;;14.75;9.35;;;11.70;99.90;;;;;;4919075;29;20414;-91
2023/07/26 02:43:41;;;;;;;15.40;10.10;;;11.70;99.90;;;;;;4918115;29;20440;-90
2023/07/26 02:46:07;;;;;;;11.13;8.48;;;11.60;99.90;;;;;;4918544;29;20410;-93
2023/07/26 02:48:33;;;;;;;9.75;7.53;;;11.60;99.90;;;;;;4918918;29;20406;-93
2023/07/26 02:50:58;;;;;;;10.15;7.38;;;11.70;99.90;;;;;;4916608;29;20426;-92
2023/07/26 02:53:24;;;;;;;14.50;9.20;;;11.70;99.90;;;;;;4919174;29;20624;-92
2023/07/26 02:55:50;;;;;;;12.05;8.27;;;11.70;99.90;;;;;;4917854;29;20469;-92
2023/07/26 02:58:16;;;;;;;10.98;7.90;;;11.70;99.90;;;;;;4918976;29;20481;-92
2023/07/26 03:00:41;;;;;;;13.90;9.50;;;11.80;99.90;;;;;;4917549;29;20426;-92
2023/07/26 03:03:07;;;;;;;14.98;9.50;;;11.80;99.90;;;;;;4918772;29;20866;-91
2023/07/26 03:05:36;;;;;;;13.67;9.10;;;11.80;99.90;;;;;;4918655;29;20417;-92
2023/07/26 03:08:02;;;;;;;16.20;8.48;;;11.80;99.90;;;;;;4917469;29;20437;-92
2023/07/26 03:10:28;;;;;;;11.65;6.32;;;11.90;99.90;;;;;;4918903;29;20418;-90
2023/07/26 03:12:57;;;;;;;15.07;8.30;;;11.90;99.90;;;;;;4917449;29;20437;-91
2023/07/26 03:15:23;;;;;;;12.02;6.55;;;11.90;99.90;;;;;;4918660;29;20773;-90
2023/07/26 03:17:48;;;;;;;12.80;7.75;;;12.00;99.90;;;;;;4917699;29;20514;-92
2023/07/26 03:20:14;;;;;;;14.73;8.30;;;12.00;99.90;;;;;;4918149;29;20428;-90
2023/07/26 03:22:40;;;;;;;13.50;6.95;;;12.10;99.90;;;;;;4917823;29;20441;-92
2023/07/26 03:25:06;;;;;;;12.25;7.30;;;12.00;99.90;;;;;;4917389;29;20414;-92
2023/07/26 03:27:32;;;;;;;12.93;7.20;;;12.00;99.90;;;;;;4918590;29;20417;-89
2023/07/26 03:29:57;;;;;;;14.50;7.60;;;12.00;99.90;;;;;;4932894;29;20876;-90
2023/07/26 03:32:23;;;;;;;10.05;6.70;;;12.00;99.90;;;;;;4918358;29;20485;-90
2023/07/26 03:34:49;;;;;;;14.45;7.18;;;12.20;99.90;;;;;;4917194;29;20850;-90
2023/07/26 03:37:15;;;;;;;13.93;7.30;;;12.00;99.90;;;;;;4917678;29;20409;-92
2023/07/26 03:39:40;;;;;;;11.40;6.05;;;12.00;99.90;;;;;;4917340;29;20509;-92
2023/07/26 03:42:07;;;;;;;15.18;6.53;;;12.00;99.90;;;;;;4917602;29;20488;-92
2023/07/26 03:44:33;;;;;;;10.82;6.13;;;12.20;99.90;;;;;;4917800;29;20424;-90
2023/07/26 03:46:59;;;;;;;15.85;7.25;;;12.10;99.90;;;;;;4917204;29;20422;-91
2023/07/26 03:49:24;;;;;;;13.05;6.70;;;12.00;99.90;;;;;;4917987;29;20436;-91
2023/07/26 03:51:50;;;;;;;10.87;6.40;;;11.90;99.90;;;;;;4916852;29;20469;-89
2023/07/26 03:54:16;;;;;;;13.45;7.07;;;11.80;99.90;;;;;;4918089;29;20413;-90
2023/07/26 03:56:42;;;;;;;9.45;5.55;;;11.80;99.90;;;;;;4933066;29;20421;-90
2023/07/26 03:59:08;;;;;;;12.63;6.70;;;12.10;99.90;;;;;;4917904;29;20414;-90
2023/07/26 04:01:34;;;;;;;13.73;6.53;;;11.80;99.90;;;;;;4917507;29;20460;-90
2023/07/26 04:03:59;;;;;;;12.25;6.40;;;11.70;99.90;;;;;;4916491;29;20437;-89
2023/07/26 04:06:25;;;;;;;12.18;6.20;;;11.70;99.90;;;;;;4917543;29;20544;-90
2023/07/26 04:08:51;;;;;;;12.33;7.03;;;11.70;99.90;;;;;;4916431;29;20441;-92
2023/07/26 04:11:16;;;;;;;11.38;5.70;;;11.70;99.90;;;;;;4917554;29;20468;-91
2023/07/26 04:13:42;;;;;;;10.60;5.80;;;11.60;99.90;;;;;;4916152;29;20406;-91
2023/07/26 04:16:12;;;;;;;9.30;5.83;;;11.70;99.90;;;;;;4917019;29;20414;-90
2023/07/26 04:18:38;;;;;;;14.52;7.88;;;11.70;99.90;;;;;;4916505;29;20685;-91
2023/07/26 04:21:04;;;;;;;13.27;6.45;;;11.70;99.90;;;;;;4917215;29;20410;-91
2023/07/26 04:23:29;;;;;;;15.65;7.60;;;11.80;99.90;;;;;;4932858;29;20426;-90
2023/07/26 04:25:55;;;;;;;13.80;6.07;;;11.80;99.90;;;;;;4916381;29;20410;-89
2023/07/26 04:28:21;;;;;;;13.13;7.10;;;11.80;99.90;;;;;;4916973;29;20755;-90
2023/07/26 04:30:48;;;;;;;14.27;8.27;;;11.80;99.90;;;;;;4915931;29;20417;-89
2023/07/26 04:33:14;;;;;;;14.45;8.25;;;11.90;99.90;;;;;;4917361;29;20416;-91
2023/07/26 04:35:40;;;;;;;11.73;7.13;;;12.00;99.90;;;;;;4923360;28;20943;-90
2023/07/26 04:38:06;;;;;;;12.30;7.57;;;12.10;99.90;;;;;;4935277;28;20423;-91
2023/07/26 04:40:32;;;;;;;15.50;8.50;;;12.20;99.90;;;;;;4934508;28;20424;-91
2023/07/26 04:42:57;;;;;;;11.45;8.02;;;12.30;99.90;;;;;;4934716;28;20951;-91
2023/07/26 04:45:23;;;;;;;15.50;8.57;;;12.40;99.90;;;;;;4935687;28;20512;-90
2023/07/26 04:47:49;;;;;;;15.10;8.77;;;12.40;99.90;;;;;;4934439;28;20400;-91
2023/07/26 04:50:15;;;;;;;16.23;8.32;;;12.70;99.90;;;;;;4934382;28;20416;-91
2023/07/26 04:52:40;;;;;;;14.47;6.97;;;12.80;99.90;;;;;;4932742;28;20935;-91
2023/07/26 04:55:07;;;;;;;12.77;7.17;;;13.00;99.90;;;;;;4934505;28;20559;-92
2023/07/26 04:57:32;;;;;;;16.58;8.15;;;13.20;99.90;;;;;;4925233;28;20420;-92
2023/07/26 04:59:58;;;;;;;19.10;8.57;;;13.50;99.90;;;;;;4930352;28;20409;-93
2023/07/26 05:02:24;;;;;;;13.33;6.87;;;13.50;99.90;;;;;;4935204;28;20807;-91
2023/07/26 05:04:49;;;;;;;15.48;6.07;;;13.60;99.90;;;;;;4934099;28;20404;-92
2023/07/26 05:07:15;;;;;;;15.15;6.32;;;13.80;99.90;;;;;;4935519;28;20424;-93
2023/07/26 05:09:41;;;;;;;10.77;5.13;;;13.70;99.90;;;;;;4933791;28;20554;-92
2023/07/26 05:12:07;;;;;;;7.93;4.07;;;13.70;99.90;;;;;;4935022;28;20414;-93
2023/07/26 05:14:33;;;;;;;10.18;4.57;;;13.60;99.90;;;;;;4935341;28;20419;-93
2023/07/26 05:16:59;;;;;;;12.25;4.55;;;13.50;99.90;;;;;;4939400;28;20455;-93
2023/07/26 05:19:25;;;;;;;11.93;4.20;;;13.40;99.90;;;;;;4939050;28;20777;-92
2023/07/26 05:21:50;;;;;;;16.02;5.57;;;13.30;99.90;;;;;;4938586;28;20396;-93
2023/07/26 05:24:16;;;;;;;18.40;6.00;;;13.20;99.90;;;;;;4939204;28;20443;-93
2023/07/26 05:26:42;;;;;;;13.93;5.53;;;13.10;99.90;;;;;;4936902;28;20760;-93
2023/07/26 05:29:07;;;;;;;18.00;6.15;;;13.00;99.90;;;;;;4939965;28;20412;-93
2023/07/26 05:31:36;;;;;;;18.45;7.78;;;13.30;99.90;;;;;;4936503;28;20404;-93
2023/07/26 05:41:32;;;;;;;;;;;;;;;;;;;;;
2023/07/26 05:44:23;;;;;;;36.78;11.00;;;12.90;99.90;;;;;;5014085;28;20518;-94
2023/07/26 05:47:06;;;;;;;;;;;;;;;;;;;;;
2023/07/26 05:50:10;;;;;;;25.43;9.23;;;12.90;99.90;;;;;;5019864;28;20406;-94
2023/07/26 06:11:18;;;;;;;23.75;9.98;;;13.00;99.90;;;;;;5390982;23;20624;-95
2023/07/26 06:13:43;;;;;;;45.20;13.27;;;13.00;99.90;;;;;;4994233;28;20413;-95
2023/07/26 06:16:12;;;;;;;26.95;9.90;;;13.20;99.90;;;;;;4990574;28;20949;-93
2023/07/26 06:18:37;;;;;;;22.63;9.40;;;13.20;99.90;;;;;;4992456;28;20426;-94
2023/07/26 06:21:03;;;;;;;28.75;10.98;;;13.20;99.90;;;;;;4992959;28;20759;-93
2023/07/26 06:23:53;;;;;;;26.43;10.70;;;13.20;99.90;;;;;;4991014;28;20440;-93
2023/07/26 06:31:41;;;;;;;46.45;15.00;;;13.30;99.90;;;;;;5927340;23;20784;-93
2023/07/26 06:34:56;;;;;;;35.60;14.82;;;13.20;99.90;;;;;;5007879;28;20387;-94
2023/07/26 06:37:28;;;;;;;29.83;13.15;;;13.40;99.90;;;;;;4996487;28;20418;-95
2023/07/26 06:39:54;;;;;;;29.63;11.30;;;13.20;99.90;;;;;;4997643;28;20415;-93
2023/07/26 06:42:19;;;;;;;23.48;11.02;;;13.20;99.90;;;;;;4994924;28;20442;-93
2023/07/26 06:44:58;;;;;;;;;;;;;;;;;;;;;
2023/07/26 06:47:50;;;;;;;29.45;12.27;;;13.20;99.90;;;;;;4999985;28;20446;-94
2023/07/26 06:50:32;;;;;;;31.38;13.43;;;13.30;99.90;;;;;;4996039;28;20426;-95
2023/07/26 06:53:11;;;;;;;25.42;12.93;;;13.30;99.90;;;;;;4995177;28;20459;-95
2023/07/26 06:55:38;;;;;;;12.77;7.70;;;13.40;99.90;;;;;;4993240;28;20425;-94
2023/07/26 06:58:04;;;;;;;22.58;11.18;;;13.60;99.90;;;;;;4995693;28;20910;-93
2023/07/26 07:00:33;;;;;;;15.52;7.60;;;13.70;99.90;;;;;;4993323;28;20414;-95
2023/07/26 07:03:01;;;;;;;13.55;8.07;;;13.80;99.90;;;;;;4995702;28;20431;-92
2023/07/26 07:05:37;;;;;;;17.13;8.93;;;13.90;99.90;;;;;;4992773;28;21029;-93
2023/07/26 07:08:05;;;;;;;17.10;6.80;;;14.10;99.90;;;;;;4994798;28;20775;-93
2023/07/26 07:10:31;;;;;;;9.13;4.75;;;14.20;99.90;;;;;;4994495;28;20494;-93
2023/07/26 07:12:57;;;;;;;15.37;7.30;;;14.50;99.90;;;;;;4995666;28;20827;-95
2023/07/26 07:15:23;;;;;;;15.68;6.10;;;14.60;99.90;;;;;;4995405;28;20485;-91
2023/07/26 07:17:48;;;;;;;8.33;4.30;;;14.80;99.90;;;;;;4993751;28;20406;-96
2023/07/26 07:20:15;;;;;;;14.55;5.93;;;15.00;99.90;;;;;;4995898;28;20448;-93
2023/07/26 07:22:41;;;;;;;21.77;6.85;;;14.70;99.90;;;;;;4992420;28;20471;-94
2023/07/26 07:25:07;;;;;;;12.27;6.00;;;14.70;99.90;;;;;;4995030;28;20478;-93
2023/07/26 07:27:32;;;;;;;12.27;5.25;;;14.80;99.90;;;;;;4992667;28;20470;-94
2023/07/26 07:30:01;;;;;;;8.00;3.80;;;14.80;99.90;;;;;;4996041;28;20933;-94
2023/07/26 07:32:30;;;;;;;7.10;3.88;;;14.60;99.90;;;;;;4989697;28;20417;-93
2023/07/26 07:35:56;;;;;;;8.23;4.20;;;14.60;99.90;;;;;;4990371;28;20424;-94
2023/07/26 07:38:24;;;;;;;5.47;2.47;;;14.60;99.90;;;;;;4990745;28;20452;-93
2023/07/26 07:41:10;;;;;;;6.78;3.38;;;14.70;99.90;;;;;;4988713;28;20400;-93
2023/07/26 07:43:36;;;;;;;5.60;2.58;;;14.70;99.90;;;;;;4991235;28;20437;-93
2023/07/26 07:57:26;;;;;;;20.98;7.97;;;15.40;99.90;;;;;;4966710;28;20418;-94
2023/07/26 08:00:29;;;;;;;8.15;5.22;;;15.40;99.90;;;;;;4934433;29;20418;-94
2023/07/26 08:06:40;;;;;;;;;;;;;;;;;;;;;
2023/07/26 08:17:23;;;;;;;5.28;4.30;;;15.90;99.90;;;;;;4898219;29;20453;-93
2023/07/26 08:19:49;;;;;;;6.22;4.60;;;15.80;99.90;;;;;;4880321;29;20494;-94
2023/07/26 08:22:15;;;;;;;7.27;4.83;;;15.90;99.90;;;;;;4912339;29;20806;-92
2023/07/26 08:24:41;;;;;;;13.73;7.32;;;16.10;99.90;;;;;;4942569;28;20416;-93
2023/07/26 08:27:12;;;;;;;8.57;5.83;;;16.20;99.90;;;;;;4941836;28;20511;-94
2023/07/26 08:29:46;;;;;;;5.40;3.83;;;16.20;99.90;;;;;;4952766;28;20444;-94
2023/07/26 08:32:12;;;;;;;7.15;4.60;;;16.30;99.90;;;;;;4959755;28;20481;-91
2023/07/26 08:34:38;;;;;;;6.65;4.20;;;16.40;99.90;;;;;;4953172;28;20447;-93
2023/07/26 08:37:04;;;;;;;5.20;3.30;;;16.50;99.90;;;;;;4953296;28;20424;-94
2023/07/26 08:39:30;;;;;;;6.25;3.22;;;16.50;99.90;;;;;;4951574;28;20425;-93
2023/07/26 08:42:21;;;;;;;4.70;2.80;;;16.60;99.90;;;;;;4979868;28;20427;-93
2023/07/26 08:45:00;;;;;;;5.53;3.67;;;16.60;99.90;;;;;;4935519;28;20466;-94
2023/07/26 08:47:32;;;;;;;6.55;4.30;;;16.50;99.90;;;;;;4958728;28;20398;-92
2023/07/26 08:50:39;;;;;;;5.75;3.58;;;16.20;99.90;;;;;;4960315;28;20445;-93
2023/07/26 08:53:08;;;;;;;4.53;2.67;;;16.50;99.90;;;;;;4978247;28;20413;-95
2023/07/26 08:55:35;;;;;;;5.03;3.30;;;16.70;99.90;;;;;;4994628;28;20503;-94
2023/07/26 08:58:02;;;;;;;5.60;3.40;;;16.90;99.90;;;;;;4991296;28;20400;-93
2023/07/26 09:00:29;;;;;;;4.28;2.40;;;17.00;99.90;;;;;;4992747;28;20427;-94
2023/07/26 09:03:00;;;;;;;3.43;2.10;;;17.20;99.90;;;;;;4993376;28;20436;-95
2023/07/26 09:05:30;;;;;;;5.32;2.70;;;17.30;99.90;;;;;;4993042;28;20409;-94
2023/07/26 09:08:05;;;;;;;3.28;1.92;;;17.50;99.90;;;;;;4995460;28;20393;-94
2023/07/26 09:10:40;;;;;;;2.97;1.80;;;17.70;99.90;;;;;;4993894;28;20443;-95
2023/07/26 09:13:14;;;;;;;2.90;1.52;;;17.90;99.90;;;;;;4998263;28;20901;-93
2023/07/26 09:15:44;;;;;;;3.38;1.92;;;18.10;99.90;;;;;;4990270;28;20819;-94
2023/07/26 09:18:19;;;;;;;3.50;1.92;;;18.40;99.90;;;;;;5006190;28;20946;-93
2023/07/26 09:21:01;;;;;;;3.50;2.00;;;18.60;99.90;;;;;;5008804;28;20440;-94
2023/07/26 09:24:21;;;;;;;4.70;1.70;;;18.70;99.90;;;;;;5006415;28;20444;-95
2023/07/26 09:27:26;;;;;;;;;;;;;;;;;;;;;
2023/07/26 09:30:00;;;;;;;3.50;1.35;;;18.90;99.90;;;;;;4918190;29;20511;-92
2023/07/26 09:32:52;;;;;;;2.95;1.58;;;18.60;99.90;;;;;;4887025;29;20414;-94
2023/07/26 09:42:50;;;;;;;1.83;0.88;;;18.30;99.90;;;;;;4822751;29;20434;-94
2023/07/26 09:45:57;;;;;;;1.95;0.70;;;18.70;99.90;;;;;;4833994;29;20418;-93
2023/07/26 09:48:32;;;;;;;2.00;0.70;;;18.70;99.90;;;;;;4855740;29;20413;-93
2023/07/26 09:51:05;;;;;;;3.00;0.60;;;19.00;99.90;;;;;;4863873;29;20416;-95
2023/07/26 09:57:43;;;;;;;3.45;1.10;;;18.80;99.90;;;;;;4840468;29;20435;-94
2023/07/26 10:00:24;;;;;;;1.73;0.80;;;18.80;99.90;;;;;;4816288;29;20484;-94
2023/07/26 10:03:22;;;;;;;1.73;0.80;;;19.20;99.90;;;;;;4925871;28;20520;-94
2023/07/26 10:10:02;;;;;;;;;;;;;;;;;;;;;
2023/07/26 10:16:46;;;;;;;1.48;0.65;;;19.60;99.90;;;;;;4879334;29;20465;-91
2023/07/26 10:19:13;;;;;;;1.80;1.00;;;19.80;99.90;;;;;;4878357;29;20861;-94
2023/07/26 10:21:40;;;;;;;3.47;1.42;;;20.10;99.90;;;;;;4937671;28;20442;-93
2023/07/26 10:24:07;;;;;;;3.20;1.00;;;20.40;99.90;;;;;;4990740;28;20444;-92
2023/07/26 10:26:35;;;;;;;2.20;1.20;;;20.70;99.90;;;;;;4992112;28;20488;-94
2023/07/26 10:29:02;;;;;;;3.97;1.33;;;20.70;99.90;;;;;;4990879;28;20927;-94
2023/07/26 10:31:28;;;;;;;2.22;1.00;;;20.90;99.90;;;;;;4992936;28;20456;-92
2023/07/26 10:33:56;;;;;;;2.03;0.70;;;21.20;99.90;;;;;;4991697;28;20409;-93
2023/07/26 10:36:30;;;;;;;2.42;0.75;;;21.40;99.90;;;;;;4983378;28;20512;-92
2023/07/26 10:38:56;;;;;;;2.80;0.93;;;21.30;99.90;;;;;;4972950;28;20414;-90
2023/07/26 10:41:24;;;;;;;2.20;0.93;;;21.60;99.90;;;;;;4988593;28;20403;-93
2023/07/26 10:44:01;;;;;;;2.80;1.10;;;21.70;99.90;;;;;;4973168;28;20925;-94
2023/07/26 10:46:27;;;;;;;2.30;0.80;;;21.70;99.00;;;;;;4971938;28;20411;-89
2023/07/26 10:48:53;;;;;;;2.55;0.90;;;21.90;99.90;;;;;;4988515;28;20422;-93
2023/07/26 10:51:31;;;;;;;2.80;0.90;;;22.20;97.30;;;;;;4972699;28;20921;-89
2023/07/26 10:53:58;;;;;;;1.80;0.70;;;22.60;99.90;;;;;;4972630;28;20520;-88
2023/07/26 10:56:26;;;;;;;2.17;0.88;;;22.70;89.20;;;;;;4980516;28;20425;-93
2023/07/26 10:59:27;;;;;;;2.67;1.10;;;22.20;85.80;;;;;;4991276;28;20405;-93
2023/07/26 11:02:02;;;;;;;2.38;0.50;;;21.90;95.30;;;;;;4964430;28;20469;-93
2023/07/26 11:04:28;;;;;;;2.60;0.50;;;21.70;92.50;;;;;;4988388;28;20426;-93
2023/07/26 11:07:03;;;;;;;2.05;0.52;;;21.50;92.70;;;;;;4972463;28;20438;-92
2023/07/26 11:09:33;;;;;;;2.40;0.50;;;21.00;89.90;;;;;;4973430;28;20497;-93
2023/07/26 12:11:19;;;;;;;3.97;0.60;;;20.90;99.90;;;;;;2273403;23;21987;31
2023/07/26 12:14:15;;;;;;;2.72;0.50;;;20.60;99.90;;;;;;4928824;28;20959;-94
2023/07/26 12:17:23;;;;;;;1.85;0.40;;;20.90;99.90;;;;;;4925986;29;20513;-95
2023/07/26 12:20:06;;;;;;;2.15;0.40;;;21.00;99.50;;;;;;4911259;29;20418;-95
2023/07/26 12:23:14;;;;;;;1.50;0.40;;;21.00;70.90;;;;;;4952417;29;20446;-95
2023/07/26 12:25:51;;;;;;;1.98;0.40;;;20.80;78.80;;;;;;4940541;29;20415;-93
2023/07/26 12:28:24;;;;;;;2.25;0.45;;;21.20;91.00;;;;;;4959352;29;20422;-94
2023/07/26 12:31:37;;;;;;;2.00;0.35;;;21.70;99.50;;;;;;4935225;29;20410;-94
2023/07/26 12:34:19;;;;;;;1.80;0.52;;;22.10;65.80;;;;;;4952196;29;20410;-95
2023/07/26 12:37:00;;;;;;;;;;;;;;;;;;;;;
2023/07/26 12:39:34;;;;;;;1.80;0.40;;;21.80;59.60;;;;;;4937210;29;20414;-94
2023/07/26 12:42:03;;;;;;;2.80;0.40;;;21.50;61.10;;;;;;4951444;29;21052;-94
2023/07/26 12:44:38;;;;;;;2.38;0.40;;;21.10;63.00;;;;;;4952574;29;20442;-94
2023/07/26 12:47:09;;;;;;;1.67;0.40;;;20.80;65.00;;;;;;4949788;29;20449;-94
2023/07/26 12:50:11;;;;;;;2.00;0.40;;;20.40;67.60;;;;;;4952526;29;20453;-94
2023/07/26 12:52:50;;;;;;;2.05;0.40;;;20.20;77.80;;;;;;4922422;29;20949;-95
2023/07/26 12:55:15;;;;;;;2.42;0.50;;;20.10;76.20;;;;;;4924470;29;20421;-93
2023/07/26 12:58:03;;;;;;;1.70;0.60;;;20.20;89.60;;;;;;4923312;28;20426;-95
2023/07/26 13:01:01;;;;;;;2.60;0.55;;;20.20;92.90;;;;;;4926931;29;20410;-94
2023/07/26 13:03:49;;;;;;;2.13;0.50;;;20.70;78.40;;;;;;4930221;29;20473;-95
2023/07/26 13:06:43;;;;;;;2.53;0.50;;;21.10;89.20;;;;;;4943324;28;20449;-94
2023/07/26 13:09:17;;;;;;;1.87;0.60;;;21.40;77.50;;;;;;4917091;29;20539;-93
2023/07/26 13:11:44;;;;;;;2.55;0.47;;;21.80;85.90;;;;;;4898228;29;20479;-91
2023/07/26 13:14:10;;;;;;;2.10;0.47;;;22.40;86.90;;;;;;4929888;29;20921;-91
2023/07/26 13:16:35;;;;;;;2.83;0.60;;;22.90;68.40;;;;;;4915371;28;20413;-89
2023/07/26 13:19:02;;;;;;;2.88;0.50;;;23.40;63.20;;;;;;4917348;29;20414;-92
2023/07/26 13:21:28;;;;;;;2.03;0.40;;;23.60;65.10;;;;;;4915099;29;20446;-93
2023/07/26 13:23:54;;;;;;;2.72;0.50;;;23.90;62.90;;;;;;4916617;29;20456;-93
2023/07/26 13:26:20;;;;;;;3.10;0.80;;;23.50;62.40;;;;;;4915472;28;20410;-88
2023/07/26 13:28:45;;;;;;;2.70;1.08;;;23.30;62.80;;;;;;4948655;28;20452;-93
2023/07/26 13:31:11;;;;;;;1.35;0.50;;;22.80;60.70;;;;;;4916421;29;20428;-92
2023/07/26 13:33:37;;;;;;;3.45;0.73;;;22.40;63.60;;;;;;4930577;29;20418;-93
2023/07/26 13:36:03;;;;;;;2.20;0.50;;;22.20;63.90;;;;;;4934528;29;20421;-95
2023/07/26 13:38:29;;;;;;;2.72;0.63;;;22.50;71.00;;;;;;4918331;29;20425;-93
2023/07/26 13:40:54;;;;;;;3.33;0.65;;;22.40;67.60;;;;;;4920107;28;20932;-90
2023/07/26 13:43:20;;;;;;;2.93;0.70;;;22.00;64.90;;;;;;4917769;29;20438;-92
2023/07/26 13:45:46;;;;;;;2.70;0.70;;;21.70;72.30;;;;;;4920448;28;20417;-93
2023/07/26 13:48:11;;;;;;;3.27;0.83;;;21.50;67.20;;;;;;4920260;29;20912;-90
2023/07/26 13:50:42;;;;;;;2.63;0.60;;;21.90;94.60;;;;;;4919720;29;20480;-92
2023/07/26 13:53:07;;;;;;;2.42;0.80;;;22.70;74.70;;;;;;4935447;29;20429;-87
2023/07/26 13:55:33;;;;;;;3.80;0.80;;;23.20;64.10;;;;;;4933281;28;20418;-87
2023/07/26 13:57:59;;;;;;;2.13;0.80;;;23.50;60.50;;;;;;4935784;29;20425;-89
2023/07/26 14:00:25;;;;;;;2.77;0.70;;;23.90;61.10;;;;;;4933840;29;20422;-89
2023/07/26 14:02:53;;;;;;;3.03;0.80;;;24.10;62.20;;;;;;4919710;29;20829;-93
2023/07/26 14:05:19;;;;;;;2.60;0.88;;;23.60;60.50;;;;;;4918364;29;20429;-87
2023/07/26 14:07:45;;;;;;;2.85;1.00;;;23.30;62.80;;;;;;4952559;29;20414;-92
2023/07/26 14:10:10;;;;;;;3.50;0.90;;;23.10;62.20;;;;;;4951165;29;20421;-91
2023/07/26 14:12:36;;;;;;;3.75;0.90;;;22.90;61.10;;;;;;4950005;29;20414;-92
2023/07/26 14:15:02;;;;;;;2.67;0.68;;;23.30;70.30;;;;;;4948970;28;20985;-91
2023/07/26 14:17:28;;;;;;;3.75;0.80;;;23.70;65.40;;;;;;4950258;28;20509;-88
2023/07/26 14:19:53;;;;;;;2.10;0.80;;;24.30;62.00;;;;;;4934790;29;20406;-88
2023/07/26 14:22:19;;;;;;;2.20;0.63;;;24.80;59.70;;;;;;4918123;29;20426;-93
2023/07/26 14:24:45;;;;;;;2.13;0.70;;;24.80;57.50;;;;;;4919255;28;20421;-90
2023/07/26 14:27:10;;;;;;;2.50;0.80;;;24.60;58.70;;;;;;4917819;29;20764;-93
2023/07/26 14:29:36;;;;;;;3.00;0.65;;;24.10;58.80;;;;;;4915643;29;20512;-91
2023/07/26 14:32:02;;;;;;;2.67;0.80;;;23.90;56.70;;;;;;4917753;29;20413;-93
2023/07/26 14:34:28;;;;;;;1.83;0.50;;;23.40;56.60;;;;;;4916716;29;20410;-91
2023/07/26 14:36:54;;;;;;;1.95;0.73;;;22.80;56.30;;;;;;4921084;29;21095;-87
2023/07/26 14:39:19;;;;;;;3.17;0.88;;;22.50;63.00;;;;;;4916776;29;20418;-94
2023/07/26 14:41:45;;;;;;;3.57;0.93;;;22.10;60.40;;;;;;4917348;29;20440;-90
2023/07/26 14:44:11;;;;;;;3.45;1.08;;;22.10;62.30;;;;;;4917698;29;20865;-93
2023/07/26 14:46:37;;;;;;;3.47;0.90;;;21.60;71.70;;;;;;4918375;29;20418;-91
2023/07/26 14:49:02;;;;;;;3.90;1.00;;;21.40;69.00;;;;;;4918345;29;20449;-93
2023/07/26 14:51:28;;;;;;;4.67;1.30;;;21.30;73.20;;;;;;4918103;29;20435;-92
2023/07/26 14:53:54;;;;;;;3.85;1.00;;;21.30;74.30;;;;;;4919282;29;20414;-91
2023/07/26 14:56:19;;;;;;;3.50;0.83;;;21.20;72.30;;;;;;4916715;29;20504;-90
2023/07/26 14:58:45;;;;;;;3.80;1.13;;;21.00;75.40;;;;;;4951290;29;20418;-91
2023/07/26 15:01:11;;;;;;;3.43;1.20;;;20.80;70.20;;;;;;4917805;29;20414;-93
2023/07/26 15:03:36;;;;;;;6.40;1.48;;;20.70;83.10;;;;;;4918546;29;20767;-90
2023/07/26 15:06:02;;;;;;;3.30;1.53;;;20.60;78.10;;;;;;4918275;29;20473;-90
2023/07/26 15:08:28;;;;;;;4.50;1.23;;;20.50;83.80;;;;;;4931064;29;20441;-93
2023/07/26 15:10:54;;;;;;;2.87;1.30;;;20.50;89.00;;;;;;4919197;28;20417;-93
2023/07/26 15:13:20;;;;;;;4.30;1.17;;;20.50;91.40;;;;;;4915771;29;20464;-91
2023/07/26 15:15:45;;;;;;;3.20;0.93;;;20.90;80.00;;;;;;4918083;29;20413;-90
2023/07/26 15:18:11;;;;;;;3.10;1.33;;;20.50;90.30;;;;;;4916745;29;20531;-91
2023/07/26 15:20:37;;;;;;;3.92;1.20;;;20.50;83.40;;;;;;4918728;29;20429;-93